sensor_id;sensor_type;location;lat;lon;timestamp;temperature;humidity
9157;DHT22;4613;48.392;9.998;2022-08-30T00:00:59;19.40;99.90
9157;DHT22;4613;48.392;9.998;2022-08-30T00:03:37;19.40;99.90
9157;DHT22;4613;48.392;9.998;2022-08-30T00:06:14;19.20;99.90
9157;DHT22;4613;48.392;9.998;2022-08-30T00:08:47;18.90;99.90
9157;DHT22;4613;48.392;9.998;2022-08-30T00:11:26;18.60;99.90
9157;DHT22;4613;48.392;9.998;2022-08-30T00:13:57;18.90;99.90
9157;DHT22;4613;48.392;9.998;2022-08-30T00:16:29;19.10;99.90
9157;DHT22;4613;48.392;9.998;2022-08-30T00:19:00;19.10;99.90
9157;DHT22;4613;48.392;9.998;2022-08-30T00:21:32;19.10;99.90
9157;DHT22;4613;48.392;9.998;2022-08-30T00:24:03;19.00;99.90
9157;DHT22;4613;48.392;9.998;2022-08-30T00:26:34;19.30;99.90
9157;DHT22;4613;48.392;9.998;2022-08-30T00:29:05;18.90;99.90
9157;DHT22;4613;48.392;9.998;2022-08-30T00:31:36;18.70;99.90
9157;DHT22;4613;48.392;9.998;2022-08-30T00:34:07;18.90;99.90
9157;DHT22;4613;48.392;9.998;2022-08-30T00:36:38;18.80;99.90
9157;DHT22;4613;48.392;9.998;2022-08-30T00:39:09;18.80;99.90
9157;DHT22;4613;48.392;9.998;2022-08-30T00:41:40;18.90;99.90
9157;DHT22;4613;48.392;9.998;2022-08-30T00:44:10;19.00;99.90
9157;DHT22;4613;48.392;9.998;2022-08-30T00:46:41;18.70;99.90
9157;DHT22;4613;48.392;9.998;2022-08-30T00:49:13;18.90;99.90
9157;DHT22;4613;48.392;9.998;2022-08-30T00:51:44;18.70;99.90
9157;DHT22;4613;48.392;9.998;2022-08-30T00:54:16;18.90;99.90
9157;DHT22;4613;48.392;9.998;2022-08-30T00:56:48;19.10;99.90
9157;DHT22;4613;48.392;9.998;2022-08-30T00:59:19;19.00;99.90
9157;DHT22;4613;48.392;9.998;2022-08-30T01:01:51;18.90;99.90
9157;DHT22;4613;48.392;9.998;2022-08-30T01:04:24;18.90;99.90
9157;DHT22;4613;48.392;9.998;2022-08-30T01:06:56;19.00;99.90
9157;DHT22;4613;48.392;9.998;2022-08-30T01:09:27;18.70;99.90
9157;DHT22;4613;48.392;9.998;2022-08-30T01:11:59;18.80;99.90
9157;DHT22;4613;48.392;9.998;2022-08-30T01:14:31;19.00;99.90
9157;DHT22;4613;48.392;9.998;2022-08-30T01:17:04;19.10;99.90
9157;DHT22;4613;48.392;9.998;2022-08-30T01:24:59;18.90;99.90
9157;DHT22;4613;48.392;9.998;2022-08-30T01:27:31;18.90;99.90
9157;DHT22;4613;48.392;9.998;2022-08-30T01:30:05;18.60;99.90
9157;DHT22;4613;48.392;9.998;2022-08-30T01:32:42;18.50;99.90
9157;DHT22;4613;48.392;9.998;2022-08-30T01:35:16;18.50;99.90
9157;DHT22;4613;48.392;9.998;2022-08-30T01:37:48;18.10;99.90
9157;DHT22;4613;48.392;9.998;2022-08-30T01:40:20;18.40;99.90
9157;DHT22;4613;48.392;9.998;2022-08-30T01:42:51;18.20;99.90
9157;DHT22;4613;48.392;9.998;2022-08-30T01:45:22;18.30;99.90
9157;DHT22;4613;48.392;9.998;2022-08-30T01:47:53;18.40;99.90
9157;DHT22;4613;48.392;9.998;2022-08-30T01:50:24;18.70;99.90
9157;DHT22;4613;48.392;9.998;2022-08-30T01:52:55;18.60;99.90
9157;DHT22;4613;48.392;9.998;2022-08-30T01:55:26;18.40;99.90
9157;DHT22;4613;48.392;9.998;2022-08-30T01:57:57;18.00;99.90
9157;DHT22;4613;48.392;9.998;2022-08-30T02:00:28;18.20;99.90
9157;DHT22;4613;48.392;9.998;2022-08-30T02:03:00;18.10;99.90
9157;DHT22;4613;48.392;9.998;2022-08-30T02:05:31;18.30;99.90
9157;DHT22;4613;48.392;9.998;2022-08-30T02:08:02;18.10;99.90
9157;DHT22;4613;48.392;9.998;2022-08-30T02:10:33;18.10;99.90
9157;DHT22;4613;48.392;9.998;2022-08-30T02:13:04;17.90;99.90
9157;DHT22;4613;48.392;9.998;2022-08-30T02:15:35;18.00;99.90
9157;DHT22;4613;48.392;9.998;2022-08-30T02:18:06;18.30;99.90
9157;DHT22;4613;48.392;9.998;2022-08-30T02:20:38;18.30;99.90
9157;DHT22;4613;48.392;9.998;2022-08-30T02:23:09;18.30;99.90
9157;DHT22;4613;48.392;9.998;2022-08-30T02:25:40;18.20;99.90
9157;DHT22;4613;48.392;9.998;2022-08-30T02:28:11;18.00;99.90
9157;DHT22;4613;48.392;9.998;2022-08-30T02:30:46;17.90;99.90
9157;DHT22;4613;48.392;9.998;2022-08-30T02:33:17;18.10;99.90
9157;DHT22;4613;48.392;9.998;2022-08-30T02:35:48;18.30;99.90
9157;DHT22;4613;48.392;9.998;2022-08-30T02:38:19;18.20;99.90
9157;DHT22;4613;48.392;9.998;2022-08-30T02:40:50;18.20;99.90
9157;DHT22;4613;48.392;9.998;2022-08-30T02:43:22;18.20;99.90
9157;DHT22;4613;48.392;9.998;2022-08-30T02:45:53;17.90;99.90
9157;DHT22;4613;48.392;9.998;2022-08-30T02:48:24;17.90;99.90
9157;DHT22;4613;48.392;9.998;2022-08-30T02:50:55;18.00;99.90
9157;DHT22;4613;48.392;9.998;2022-08-30T02:53:26;18.00;99.90
9157;DHT22;4613;48.392;9.998;2022-08-30T02:55:57;18.00;99.90
9157;DHT22;4613;48.392;9.998;2022-08-30T02:58:28;18.00;99.90
9157;DHT22;4613;48.392;9.998;2022-08-30T03:00:59;18.00;99.90
9157;DHT22;4613;48.392;9.998;2022-08-30T03:03:31;17.90;99.90
9157;DHT22;4613;48.392;9.998;2022-08-30T03:06:03;17.80;99.90
9157;DHT22;4613;48.392;9.998;2022-08-30T03:08:34;17.80;99.90
9157;DHT22;4613;48.392;9.998;2022-08-30T03:11:05;17.70;99.90
9157;DHT22;4613;48.392;9.998;2022-08-30T03:13:36;17.90;99.90
9157;DHT22;4613;48.392;9.998;2022-08-30T03:16:07;17.80;99.90
9157;DHT22;4613;48.392;9.998;2022-08-30T03:18:38;17.90;99.90
9157;DHT22;4613;48.392;9.998;2022-08-30T03:21:11;17.70;99.90
9157;DHT22;4613;48.392;9.998;2022-08-30T03:23:43;17.60;99.90
9157;DHT22;4613;48.392;9.998;2022-08-30T03:26:14;17.60;99.90
9157;DHT22;4613;48.392;9.998;2022-08-30T03:28:45;17.70;99.90
9157;DHT22;4613;48.392;9.998;2022-08-30T03:31:16;17.70;99.90
9157;DHT22;4613;48.392;9.998;2022-08-30T03:33:47;17.70;99.90
9157;DHT22;4613;48.392;9.998;2022-08-30T03:36:18;17.80;99.90
9157;DHT22;4613;48.392;9.998;2022-08-30T03:38:49;17.60;99.90
9157;DHT22;4613;48.392;9.998;2022-08-30T03:41:20;17.30;99.90
9157;DHT22;4613;48.392;9.998;2022-08-30T03:43:51;17.10;99.90
9157;DHT22;4613;48.392;9.998;2022-08-30T03:46:22;17.10;99.90
9157;DHT22;4613;48.392;9.998;2022-08-30T03:48:53;17.20;99.90
9157;DHT22;4613;48.392;9.998;2022-08-30T03:51:25;17.50;99.90
9157;DHT22;4613;48.392;9.998;2022-08-30T03:53:56;17.60;99.90
9157;DHT22;4613;48.392;9.998;2022-08-30T03:56:27;17.60;99.90
9157;DHT22;4613;48.392;9.998;2022-08-30T03:58:59;17.60;99.90
9157;DHT22;4613;48.392;9.998;2022-08-30T04:01:31;17.30;99.90
9157;DHT22;4613;48.392;9.998;2022-08-30T04:04:02;17.20;99.90
9157;DHT22;4613;48.392;9.998;2022-08-30T04:06:33;17.00;99.90
9157;DHT22;4613;48.392;9.998;2022-08-30T04:09:04;17.30;99.90
9157;DHT22;4613;48.392;9.998;2022-08-30T04:11:35;17.40;99.90
9157;DHT22;4613;48.392;9.998;2022-08-30T04:14:06;17.50;99.90
9157;DHT22;4613;48.392;9.998;2022-08-30T04:16:37;17.70;99.90
9157;DHT22;4613;48.392;9.998;2022-08-30T04:19:08;17.50;99.90
9157;DHT22;4613;48.392;9.998;2022-08-30T04:21:39;17.00;99.90
9157;DHT22;4613;48.392;9.998;2022-08-30T04:24:11;17.10;99.90
9157;DHT22;4613;48.392;9.998;2022-08-30T04:26:42;17.20;99.90
9157;DHT22;4613;48.392;9.998;2022-08-30T04:29:13;17.30;99.90
9157;DHT22;4613;48.392;9.998;2022-08-30T04:31:47;17.20;99.90
9157;DHT22;4613;48.392;9.998;2022-08-30T04:34:18;16.80;99.90
9157;DHT22;4613;48.392;9.998;2022-08-30T04:36:49;16.90;99.90
9157;DHT22;4613;48.392;9.998;2022-08-30T04:39:20;16.90;99.90
9157;DHT22;4613;48.392;9.998;2022-08-30T04:41:50;16.90;99.90
9157;DHT22;4613;48.392;9.998;2022-08-30T04:44:21;16.70;99.90
9157;DHT22;4613;48.392;9.998;2022-08-30T04:46:53;17.10;99.90
9157;DHT22;4613;48.392;9.998;2022-08-30T04:49:24;16.50;99.90
9157;DHT22;4613;48.392;9.998;2022-08-30T04:51:55;16.50;99.90
9157;DHT22;4613;48.392;9.998;2022-08-30T04:54:26;16.50;99.90
9157;DHT22;4613;48.392;9.998;2022-08-30T04:56:57;16.90;99.90
9157;DHT22;4613;48.392;9.998;2022-08-30T04:59:28;17.20;99.90
9157;DHT22;4613;48.392;9.998;2022-08-30T05:01:59;17.30;99.90
9157;DHT22;4613;48.392;9.998;2022-08-30T05:04:30;17.30;99.90
9157;DHT22;4613;48.392;9.998;2022-08-30T05:07:01;17.40;99.90
9157;DHT22;4613;48.392;9.998;2022-08-30T05:09:32;17.50;99.90
9157;DHT22;4613;48.392;9.998;2022-08-30T05:12:03;17.60;99.90
9157;DHT22;4613;48.392;9.998;2022-08-30T05:14:34;17.70;99.90
9157;DHT22;4613;48.392;9.998;2022-08-30T05:17:05;17.80;99.90
9157;DHT22;4613;48.392;9.998;2022-08-30T05:19:36;17.70;99.90
9157;DHT22;4613;48.392;9.998;2022-08-30T05:22:08;17.70;99.90
9157;DHT22;4613;48.392;9.998;2022-08-30T05:24:39;17.90;99.90
9157;DHT22;4613;48.392;9.998;2022-08-30T05:27:09;18.20;99.90
9157;DHT22;4613;48.392;9.998;2022-08-30T05:29:41;18.30;99.90
9157;DHT22;4613;48.392;9.998;2022-08-30T05:32:12;18.40;99.90
9157;DHT22;4613;48.392;9.998;2022-08-30T05:34:43;18.60;99.90
9157;DHT22;4613;48.392;9.998;2022-08-30T05:37:14;18.40;99.90
9157;DHT22;4613;48.392;9.998;2022-08-30T05:39:45;18.70;99.90
9157;DHT22;4613;48.392;9.998;2022-08-30T05:42:16;18.90;99.90
9157;DHT22;4613;48.392;9.998;2022-08-30T05:44:50;19.00;99.90
9157;DHT22;4613;48.392;9.998;2022-08-30T05:47:22;19.00;99.90
9157;DHT22;4613;48.392;9.998;2022-08-30T05:49:53;19.30;99.90
9157;DHT22;4613;48.392;9.998;2022-08-30T05:52:24;19.40;99.90
9157;DHT22;4613;48.392;9.998;2022-08-30T05:54:56;19.60;99.90
9157;DHT22;4613;48.392;9.998;2022-08-30T05:57:36;19.60;99.90
9157;DHT22;4613;48.392;9.998;2022-08-30T06:00:12;19.80;99.90
9157;DHT22;4613;48.392;9.998;2022-08-30T06:02:43;19.90;99.90
9157;DHT22;4613;48.392;9.998;2022-08-30T06:05:15;19.70;99.90
9157;DHT22;4613;48.392;9.998;2022-08-30T06:07:46;19.70;99.90
9157;DHT22;4613;48.392;9.998;2022-08-30T06:10:16;19.40;99.90
9157;DHT22;4613;48.392;9.998;2022-08-30T06:12:48;19.90;99.90
9157;DHT22;4613;48.392;9.998;2022-08-30T06:15:19;20.10;99.90
9157;DHT22;4613;48.392;9.998;2022-08-30T06:17:50;20.30;99.90
9157;DHT22;4613;48.392;9.998;2022-08-30T06:20:21;20.50;99.90
9157;DHT22;4613;48.392;9.998;2022-08-30T06:22:52;20.80;99.90
9157;DHT22;4613;48.392;9.998;2022-08-30T06:25:23;20.80;99.90
9157;DHT22;4613;48.392;9.998;2022-08-30T06:27:54;20.90;99.90
9157;DHT22;4613;48.392;9.998;2022-08-30T06:30:25;21.00;99.90
9157;DHT22;4613;48.392;9.998;2022-08-30T06:32:56;21.20;99.90
9157;DHT22;4613;48.392;9.998;2022-08-30T06:35:27;21.10;99.90
9157;DHT22;4613;48.392;9.998;2022-08-30T06:37:58;21.00;99.90
9157;DHT22;4613;48.392;9.998;2022-08-30T06:40:29;21.30;99.90
9157;DHT22;4613;48.392;9.998;2022-08-30T06:43:00;21.20;99.90
9157;DHT22;4613;48.392;9.998;2022-08-30T06:45:32;21.50;99.90
9157;DHT22;4613;48.392;9.998;2022-08-30T06:48:03;21.20;99.90
9157;DHT22;4613;48.392;9.998;2022-08-30T06:50:34;20.50;99.90
9157;DHT22;4613;48.392;9.998;2022-08-30T06:53:05;20.70;99.90
9157;DHT22;4613;48.392;9.998;2022-08-30T06:55:36;21.30;99.90
9157;DHT22;4613;48.392;9.998;2022-08-30T06:58:07;21.70;99.90
9157;DHT22;4613;48.392;9.998;2022-08-30T07:00:38;21.90;99.90
9157;DHT22;4613;48.392;9.998;2022-08-30T07:03:11;21.90;99.90
9157;DHT22;4613;48.392;9.998;2022-08-30T07:05:42;22.00;99.90
9157;DHT22;4613;48.392;9.998;2022-08-30T07:08:13;22.00;99.90
9157;DHT22;4613;48.392;9.998;2022-08-30T07:10:44;22.10;99.90
9157;DHT22;4613;48.392;9.998;2022-08-30T07:13:16;22.40;99.90
9157;DHT22;4613;48.392;9.998;2022-08-30T07:15:50;22.30;99.90
9157;DHT22;4613;48.392;9.998;2022-08-30T07:18:20;22.50;99.90
9157;DHT22;4613;48.392;9.998;2022-08-30T07:21:13;22.70;99.90
9157;DHT22;4613;48.392;9.998;2022-08-30T07:23:46;23.00;99.90
9157;DHT22;4613;48.392;9.998;2022-08-30T07:26:26;23.00;99.90
9157;DHT22;4613;48.392;9.998;2022-08-30T07:28:59;23.00;99.90
9157;DHT22;4613;48.392;9.998;2022-08-30T07:31:30;23.00;99.90
9157;DHT22;4613;48.392;9.998;2022-08-30T07:34:04;23.30;99.90
9157;DHT22;4613;48.392;9.998;2022-08-30T07:36:37;23.20;99.90
9157;DHT22;4613;48.392;9.998;2022-08-30T07:39:08;23.50;99.90
9157;DHT22;4613;48.392;9.998;2022-08-30T07:41:39;23.70;99.90
9157;DHT22;4613;48.392;9.998;2022-08-30T07:44:11;23.70;99.90
9157;DHT22;4613;48.392;9.998;2022-08-30T07:46:42;23.70;99.90
9157;DHT22;4613;48.392;9.998;2022-08-30T07:49:13;23.20;99.90
9157;DHT22;4613;48.392;9.998;2022-08-30T07:51:48;22.70;99.90
9157;DHT22;4613;48.392;9.998;2022-08-30T07:54:19;23.10;99.90
9157;DHT22;4613;48.392;9.998;2022-08-30T07:56:53;23.50;99.90
9157;DHT22;4613;48.392;9.998;2022-08-30T07:59:25;24.00;99.90
9157;DHT22;4613;48.392;9.998;2022-08-30T08:01:56;23.90;99.90
9157;DHT22;4613;48.392;9.998;2022-08-30T08:04:27;24.10;99.90
9157;DHT22;4613;48.392;9.998;2022-08-30T08:06:58;24.10;99.90
9157;DHT22;4613;48.392;9.998;2022-08-30T08:09:29;23.90;99.90
9157;DHT22;4613;48.392;9.998;2022-08-30T08:12:00;23.70;99.90
9157;DHT22;4613;48.392;9.998;2022-08-30T08:14:33;24.10;99.90
9157;DHT22;4613;48.392;9.998;2022-08-30T08:17:04;24.50;99.90
9157;DHT22;4613;48.392;9.998;2022-08-30T08:19:35;24.40;99.90
9157;DHT22;4613;48.392;9.998;2022-08-30T08:22:06;24.50;99.90
9157;DHT22;4613;48.392;9.998;2022-08-30T08:24:37;24.50;99.90
9157;DHT22;4613;48.392;9.998;2022-08-30T08:27:08;24.50;99.90
9157;DHT22;4613;48.392;9.998;2022-08-30T08:29:39;24.60;99.90
9157;DHT22;4613;48.392;9.998;2022-08-30T08:32:10;24.00;99.90
9157;DHT22;4613;48.392;9.998;2022-08-30T08:34:41;24.40;99.90
9157;DHT22;4613;48.392;9.998;2022-08-30T08:37:11;24.80;99.90
9157;DHT22;4613;48.392;9.998;2022-08-30T08:39:43;24.60;99.90
9157;DHT22;4613;48.392;9.998;2022-08-30T08:42:35;24.70;99.90
9157;DHT22;4613;48.392;9.998;2022-08-30T08:45:23;24.90;99.90
9157;DHT22;4613;48.392;9.998;2022-08-30T08:48:04;25.00;99.90
9157;DHT22;4613;48.392;9.998;2022-08-30T08:50:37;25.10;99.90
9157;DHT22;4613;48.392;9.998;2022-08-30T08:53:32;25.50;99.90
9157;DHT22;4613;48.392;9.998;2022-08-30T08:56:11;24.90;99.90
9157;DHT22;4613;48.392;9.998;2022-08-30T08:58:46;25.00;99.90
9157;DHT22;4613;48.392;9.998;2022-08-30T09:01:21;25.20;99.90
9157;DHT22;4613;48.392;9.998;2022-08-30T09:03:54;25.50;99.90
9157;DHT22;4613;48.392;9.998;2022-08-30T09:06:44;25.10;99.90
9157;DHT22;4613;48.392;9.998;2022-08-30T09:09:45;25.30;99.90
9157;DHT22;4613;48.392;9.998;2022-08-30T09:12:15;25.40;99.90
9157;DHT22;4613;48.392;9.998;2022-08-30T09:14:51;25.30;99.90
9157;DHT22;4613;48.392;9.998;2022-08-30T09:17:22;25.40;99.90
9157;DHT22;4613;48.392;9.998;2022-08-30T09:22:37;26.00;99.90
9157;DHT22;4613;48.392;9.998;2022-08-30T09:27:45;26.40;99.90
9157;DHT22;4613;48.392;9.998;2022-08-30T09:30:18;25.90;99.90
9157;DHT22;4613;48.392;9.998;2022-08-30T09:33:02;25.80;99.90
9157;DHT22;4613;48.392;9.998;2022-08-30T09:35:36;25.80;99.90
9157;DHT22;4613;48.392;9.998;2022-08-30T09:38:27;25.70;99.90
9157;DHT22;4613;48.392;9.998;2022-08-30T09:41:24;26.00;99.90
9157;DHT22;4613;48.392;9.998;2022-08-30T09:44:23;26.40;99.90
9157;DHT22;4613;48.392;9.998;2022-08-30T09:46:57;26.00;99.90
9157;DHT22;4613;48.392;9.998;2022-08-30T09:49:40;25.60;99.90
9157;DHT22;4613;48.392;9.998;2022-08-30T09:52:40;25.90;99.90
9157;DHT22;4613;48.392;9.998;2022-08-30T10:03:48;26.20;99.90
9157;DHT22;4613;48.392;9.998;2022-08-30T10:17:52;26.50;99.90
9157;DHT22;4613;48.392;9.998;2022-08-30T10:28:40;26.20;99.90
9157;DHT22;4613;48.392;9.998;2022-08-30T10:31:24;26.40;99.90
9157;DHT22;4613;48.392;9.998;2022-08-30T10:34:03;26.60;99.90
9157;DHT22;4613;48.392;9.998;2022-08-30T10:36:42;26.10;99.90
9157;DHT22;4613;48.392;9.998;2022-08-30T10:39:20;26.40;99.90
9157;DHT22;4613;48.392;9.998;2022-08-30T10:42:02;26.40;99.90
9157;DHT22;4613;48.392;9.998;2022-08-30T10:44:39;26.20;99.90
9157;DHT22;4613;48.392;9.998;2022-08-30T10:47:29;26.40;99.90
9157;DHT22;4613;48.392;9.998;2022-08-30T10:50:24;26.70;99.90
9157;DHT22;4613;48.392;9.998;2022-08-30T10:53:08;26.30;99.90
9157;DHT22;4613;48.392;9.998;2022-08-30T10:55:54;26.50;99.90
9157;DHT22;4613;48.392;9.998;2022-08-30T10:58:26;26.40;99.90
9157;DHT22;4613;48.392;9.998;2022-08-30T11:01:12;26.50;99.90
9157;DHT22;4613;48.392;9.998;2022-08-30T11:04:20;26.60;99.90
9157;DHT22;4613;48.392;9.998;2022-08-30T11:09:47;26.80;99.90
9157;DHT22;4613;48.392;9.998;2022-08-30T11:15:28;27.00;99.90
9157;DHT22;4613;48.392;9.998;2022-08-30T11:20:44;26.80;99.90
9157;DHT22;4613;48.392;9.998;2022-08-30T11:23:24;26.30;99.90
9157;DHT22;4613;48.392;9.998;2022-08-30T11:26:08;26.50;99.90
9157;DHT22;4613;48.392;9.998;2022-08-30T11:31:37;26.50;99.90
9157;DHT22;4613;48.392;9.998;2022-08-30T11:34:08;26.70;99.90
9157;DHT22;4613;48.392;9.998;2022-08-30T11:39:41;26.60;99.90
9157;DHT22;4613;48.392;9.998;2022-08-30T11:42:25;26.70;99.90
9157;DHT22;4613;48.392;9.998;2022-08-30T11:47:58;26.50;99.90
9157;DHT22;4613;48.392;9.998;2022-08-30T11:53:32;26.70;99.90
9157;DHT22;4613;48.392;9.998;2022-08-30T11:59:04;26.20;99.90
9157;DHT22;4613;48.392;9.998;2022-08-30T12:01:38;26.40;99.90
9157;DHT22;4613;48.392;9.998;2022-08-30T12:04:41;26.60;99.90
9157;DHT22;4613;48.392;9.998;2022-08-30T12:10:44;26.40;99.90
9157;DHT22;4613;48.392;9.998;2022-08-30T12:16:09;26.60;99.90
9157;DHT22;4613;48.392;9.998;2022-08-30T12:18:53;26.60;99.90
9157;DHT22;4613;48.392;9.998;2022-08-30T12:21:32;26.30;99.90
9157;DHT22;4613;48.392;9.998;2022-08-30T12:24:17;26.40;99.90
9157;DHT22;4613;48.392;9.998;2022-08-30T12:26:50;26.30;99.90
9157;DHT22;4613;48.392;9.998;2022-08-30T12:29:27;26.30;99.90
9157;DHT22;4613;48.392;9.998;2022-08-30T12:34:49;26.40;99.90
9157;DHT22;4613;48.392;9.998;2022-08-30T12:37:34;26.50;99.90
9157;DHT22;4613;48.392;9.998;2022-08-30T12:42:39;26.40;99.90
9157;DHT22;4613;48.392;9.998;2022-08-30T12:45:14;26.40;99.90
9157;DHT22;4613;48.392;9.998;2022-08-30T12:48:12;26.60;99.90
9157;DHT22;4613;48.392;9.998;2022-08-30T12:50:50;26.70;99.90
9157;DHT22;4613;48.392;9.998;2022-08-30T12:53:41;26.70;99.90
9157;DHT22;4613;48.392;9.998;2022-08-30T12:56:15;26.40;99.90
9157;DHT22;4613;48.392;9.998;2022-08-30T12:58:52;26.20;99.90
9157;DHT22;4613;48.392;9.998;2022-08-30T13:01:31;26.20;99.90
9157;DHT22;4613;48.392;9.998;2022-08-30T13:04:20;26.50;99.90
9157;DHT22;4613;48.392;9.998;2022-08-30T13:06:54;26.70;99.90
9157;DHT22;4613;48.392;9.998;2022-08-30T13:09:40;26.60;99.90
9157;DHT22;4613;48.392;9.998;2022-08-30T13:12:32;26.50;99.90
9157;DHT22;4613;48.392;9.998;2022-08-30T13:17:40;26.70;99.90
9157;DHT22;4613;48.392;9.998;2022-08-30T13:23:03;26.70;99.90
9157;DHT22;4613;48.392;9.998;2022-08-30T13:25:37;26.70;99.90
9157;DHT22;4613;48.392;9.998;2022-08-30T13:28:08;26.60;99.90
9157;DHT22;4613;48.392;9.998;2022-08-30T13:30:39;26.60;99.90
9157;DHT22;4613;48.392;9.998;2022-08-30T13:33:10;26.60;99.90
9157;DHT22;4613;48.392;9.998;2022-08-30T13:35:41;26.50;99.90
9157;DHT22;4613;48.392;9.998;2022-08-30T13:38:13;26.60;99.90
9157;DHT22;4613;48.392;9.998;2022-08-30T13:40:44;26.70;99.90
9157;DHT22;4613;48.392;9.998;2022-08-30T13:43:15;26.50;99.90
9157;DHT22;4613;48.392;9.998;2022-08-30T13:45:50;26.50;99.90
9157;DHT22;4613;48.392;9.998;2022-08-30T13:48:21;26.50;99.90
9157;DHT22;4613;48.392;9.998;2022-08-30T13:50:52;26.70;99.90
9157;DHT22;4613;48.392;9.998;2022-08-30T13:53:24;26.60;99.90
9157;DHT22;4613;48.392;9.998;2022-08-30T13:55:54;26.40;99.90
9157;DHT22;4613;48.392;9.998;2022-08-30T13:58:25;26.40;99.90
9157;DHT22;4613;48.392;9.998;2022-08-30T14:00:57;26.40;99.90
9157;DHT22;4613;48.392;9.998;2022-08-30T14:03:28;26.40;99.90
9157;DHT22;4613;48.392;9.998;2022-08-30T14:05:59;26.50;99.90
9157;DHT22;4613;48.392;9.998;2022-08-30T14:08:30;26.40;99.90
9157;DHT22;4613;48.392;9.998;2022-08-30T14:11:01;26.40;99.90
9157;DHT22;4613;48.392;9.998;2022-08-30T14:13:32;26.40;99.90
9157;DHT22;4613;48.392;9.998;2022-08-30T14:16:06;26.40;99.90
9157;DHT22;4613;48.392;9.998;2022-08-30T14:18:37;26.40;99.90
9157;DHT22;4613;48.392;9.998;2022-08-30T14:21:08;26.50;99.90
9157;DHT22;4613;48.392;9.998;2022-08-30T14:23:39;26.50;99.90
9157;DHT22;4613;48.392;9.998;2022-08-30T14:26:23;26.50;99.90
9157;DHT22;4613;48.392;9.998;2022-08-30T14:28:56;26.60;99.90
9157;DHT22;4613;48.392;9.998;2022-08-30T14:31:27;26.40;99.90
9157;DHT22;4613;48.392;9.998;2022-08-30T14:34:00;26.40;99.90
9157;DHT22;4613;48.392;9.998;2022-08-30T14:36:33;26.50;99.90
9157;DHT22;4613;48.392;9.998;2022-08-30T14:39:07;26.40;99.90
9157;DHT22;4613;48.392;9.998;2022-08-30T14:41:44;26.40;99.90
9157;DHT22;4613;48.392;9.998;2022-08-30T14:44:17;26.40;99.90
9157;DHT22;4613;48.392;9.998;2022-08-30T14:46:48;26.50;99.90
9157;DHT22;4613;48.392;9.998;2022-08-30T14:49:20;26.40;99.90
9157;DHT22;4613;48.392;9.998;2022-08-30T14:51:51;26.30;99.90
9157;DHT22;4613;48.392;9.998;2022-08-30T14:54:24;26.20;99.90
9157;DHT22;4613;48.392;9.998;2022-08-30T14:56:57;26.30;99.90
9157;DHT22;4613;48.392;9.998;2022-08-30T14:59:28;26.50;99.90
9157;DHT22;4613;48.392;9.998;2022-08-30T15:01:59;26.60;99.90
9157;DHT22;4613;48.392;9.998;2022-08-30T15:04:30;26.60;99.90
9157;DHT22;4613;48.392;9.998;2022-08-30T15:07:02;26.70;99.90
9157;DHT22;4613;48.392;9.998;2022-08-30T15:09:33;26.70;99.90
9157;DHT22;4613;48.392;9.998;2022-08-30T15:12:04;26.70;99.40
9157;DHT22;4613;48.392;9.998;2022-08-30T15:14:35;26.60;99.00
9157;DHT22;4613;48.392;9.998;2022-08-30T15:17:06;26.70;98.90
9157;DHT22;4613;48.392;9.998;2022-08-30T15:19:37;26.70;98.10
9157;DHT22;4613;48.392;9.998;2022-08-30T15:22:09;26.70;98.20
9157;DHT22;4613;48.392;9.998;2022-08-30T15:24:40;26.70;97.30
9157;DHT22;4613;48.392;9.998;2022-08-30T15:27:11;26.60;97.60
9157;DHT22;4613;48.392;9.998;2022-08-30T15:29:42;26.40;98.10
9157;DHT22;4613;48.392;9.998;2022-08-30T15:32:13;26.40;98.50
9157;DHT22;4613;48.392;9.998;2022-08-30T15:34:43;26.20;99.00
9157;DHT22;4613;48.392;9.998;2022-08-30T15:37:14;26.30;98.50
9157;DHT22;4613;48.392;9.998;2022-08-30T15:39:52;26.20;97.80
9157;DHT22;4613;48.392;9.998;2022-08-30T15:42:23;26.10;98.50
9157;DHT22;4613;48.392;9.998;2022-08-30T15:44:54;26.10;98.90
9157;DHT22;4613;48.392;9.998;2022-08-30T15:47:25;26.10;98.90
9157;DHT22;4613;48.392;9.998;2022-08-30T15:49:58;26.10;99.00
9157;DHT22;4613;48.392;9.998;2022-08-30T15:52:30;26.00;98.60
9157;DHT22;4613;48.392;9.998;2022-08-30T15:55:01;26.00;99.60
9157;DHT22;4613;48.392;9.998;2022-08-30T15:57:32;26.10;99.40
9157;DHT22;4613;48.392;9.998;2022-08-30T16:00:04;26.00;99.30
9157;DHT22;4613;48.392;9.998;2022-08-30T16:02:39;25.90;99.40
9157;DHT22;4613;48.392;9.998;2022-08-30T16:05:10;25.90;99.50
9157;DHT22;4613;48.392;9.998;2022-08-30T16:07:41;25.90;99.90
9157;DHT22;4613;48.392;9.998;2022-08-30T16:10:12;25.90;99.90
9157;DHT22;4613;48.392;9.998;2022-08-30T16:12:43;25.90;99.90
9157;DHT22;4613;48.392;9.998;2022-08-30T16:15:17;25.90;99.90
9157;DHT22;4613;48.392;9.998;2022-08-30T16:17:48;25.90;99.90
9157;DHT22;4613;48.392;9.998;2022-08-30T16:20:19;25.90;99.90
9157;DHT22;4613;48.392;9.998;2022-08-30T16:22:50;25.90;99.90
9157;DHT22;4613;48.392;9.998;2022-08-30T16:25:21;25.90;99.90
9157;DHT22;4613;48.392;9.998;2022-08-30T16:27:52;25.80;99.90
9157;DHT22;4613;48.392;9.998;2022-08-30T16:30:23;25.70;99.90
9157;DHT22;4613;48.392;9.998;2022-08-30T16:32:54;25.70;99.90
9157;DHT22;4613;48.392;9.998;2022-08-30T16:35:25;25.70;99.90
9157;DHT22;4613;48.392;9.998;2022-08-30T16:37:56;25.70;99.90
9157;DHT22;4613;48.392;9.998;2022-08-30T16:40:36;25.60;99.90
9157;DHT22;4613;48.392;9.998;2022-08-30T16:43:08;25.60;99.90
9157;DHT22;4613;48.392;9.998;2022-08-30T16:45:39;25.70;99.90
9157;DHT22;4613;48.392;9.998;2022-08-30T16:48:13;25.60;99.90
9157;DHT22;4613;48.392;9.998;2022-08-30T16:50:45;25.50;99.90
9157;DHT22;4613;48.392;9.998;2022-08-30T16:53:16;25.50;99.90
9157;DHT22;4613;48.392;9.998;2022-08-30T16:55:50;25.50;99.90
9157;DHT22;4613;48.392;9.998;2022-08-30T16:58:40;25.50;99.90
9157;DHT22;4613;48.392;9.998;2022-08-30T17:01:19;25.50;99.90
9157;DHT22;4613;48.392;9.998;2022-08-30T17:04:16;25.50;99.90
9157;DHT22;4613;48.392;9.998;2022-08-30T17:07:00;25.50;99.90
9157;DHT22;4613;48.392;9.998;2022-08-30T17:09:33;25.40;99.90
9157;DHT22;4613;48.392;9.998;2022-08-30T17:12:11;25.50;99.90
9157;DHT22;4613;48.392;9.998;2022-08-30T17:14:45;25.40;99.90
9157;DHT22;4613;48.392;9.998;2022-08-30T17:17:16;25.30;99.90
9157;DHT22;4613;48.392;9.998;2022-08-30T17:19:47;25.30;99.90
9157;DHT22;4613;48.392;9.998;2022-08-30T17:22:18;25.20;99.90
9157;DHT22;4613;48.392;9.998;2022-08-30T17:24:49;25.20;99.90
9157;DHT22;4613;48.392;9.998;2022-08-30T17:27:21;25.10;99.90
9157;DHT22;4613;48.392;9.998;2022-08-30T17:29:54;25.00;99.90
9157;DHT22;4613;48.392;9.998;2022-08-30T17:32:31;25.00;99.90
9157;DHT22;4613;48.392;9.998;2022-08-30T17:35:03;25.00;99.90
9157;DHT22;4613;48.392;9.998;2022-08-30T17:37:34;24.90;99.90
9157;DHT22;4613;48.392;9.998;2022-08-30T17:40:05;24.90;99.90
9157;DHT22;4613;48.392;9.998;2022-08-30T17:42:37;24.90;99.90
9157;DHT22;4613;48.392;9.998;2022-08-30T17:45:09;24.80;99.90
9157;DHT22;4613;48.392;9.998;2022-08-30T17:47:40;24.80;99.90
9157;DHT22;4613;48.392;9.998;2022-08-30T17:50:12;24.80;99.90
9157;DHT22;4613;48.392;9.998;2022-08-30T17:52:43;24.70;99.90
9157;DHT22;4613;48.392;9.998;2022-08-30T17:55:14;24.70;99.90
9157;DHT22;4613;48.392;9.998;2022-08-30T17:57:45;24.60;99.90
9157;DHT22;4613;48.392;9.998;2022-08-30T18:00:16;24.60;99.90
9157;DHT22;4613;48.392;9.998;2022-08-30T18:02:48;24.70;99.90